createdAt,value
2018-02-24T00:01:48.870Z,20.12
2018-02-24T00:04:16.356Z,21.58
2018-02-24T00:06:43.839Z,19.50
2018-02-24T00:09:11.329Z,19.40
2018-02-24T00:11:38.817Z,21.05
2018-02-24T00:14:06.296Z,22.15
2018-02-24T00:16:34.538Z,20.88
2018-02-24T00:19:02.038Z,21.40
2018-02-24T00:21:30.270Z,22.92
2018-02-24T00:23:57.754Z,20.92
2018-02-24T00:26:25.991Z,21.70
2018-02-24T00:28:53.475Z,20.35
2018-02-24T00:31:20.998Z,20.40
2018-02-24T00:33:48.476Z,21.42
2018-02-24T00:36:15.963Z,22.75
2018-02-24T00:38:43.459Z,20.33
2018-02-24T00:41:10.949Z,19.60
2018-02-24T00:43:38.431Z,20.58
2018-02-24T00:46:05.911Z,19.67
2018-02-24T00:48:34.160Z,21.30
2018-02-24T00:51:01.635Z,21.02
2018-02-24T00:53:29.878Z,20.15
2018-02-24T00:55:57.354Z,19.83
2018-02-24T00:58:24.847Z,22.20
2018-02-24T01:00:53.086Z,22.48
2018-02-24T01:03:20.590Z,22.30
2018-02-24T01:05:48.067Z,20.90
2018-02-24T01:08:15.556Z,20.65
2018-02-24T01:10:43.031Z,20.55
2018-02-24T01:13:10.513Z,19.33
2018-02-24T01:15:37.987Z,23.52
2018-02-24T01:18:05.480Z,22.75
2018-02-24T01:20:32.990Z,19.80
2018-02-24T01:23:00.475Z,20.12
2018-02-24T01:25:27.948Z,18.02
2018-02-24T01:27:55.422Z,19.87
2018-02-24T01:30:22.958Z,18.17
2018-02-24T01:32:50.433Z,18.67
2018-02-24T01:35:17.918Z,20.08
2018-02-24T01:37:46.152Z,20.17
2018-02-24T01:40:13.653Z,19.10
2018-02-24T01:42:41.907Z,18.85
2018-02-24T01:45:09.455Z,18.85
2018-02-24T01:47:36.914Z,17.67
2018-02-24T01:50:04.412Z,19.35
2018-02-24T01:52:32.665Z,19.27
2018-02-24T01:55:00.196Z,18.37
2018-02-24T01:57:27.685Z,20.90
2018-02-24T01:59:55.517Z,19.55
2018-02-24T02:02:23.006Z,20.77
2018-02-24T02:04:50.482Z,18.00
2018-02-24T02:07:18.722Z,20.85
2018-02-24T02:09:46.198Z,22.62
2018-02-24T02:12:13.680Z,20.40
2018-02-24T02:14:41.922Z,21.77
2018-02-24T02:17:09.530Z,19.80
2018-02-24T02:19:37.014Z,22.27
2018-02-24T02:22:04.490Z,19.50
2018-02-24T02:24:31.977Z,19.62
2018-02-24T02:27:00.267Z,20.02
2018-02-24T02:29:28.507Z,19.55
2018-02-24T02:31:55.985Z,18.80
2018-02-24T02:34:23.471Z,19.73
2018-02-24T02:36:50.946Z,20.58
2018-02-24T02:39:18.425Z,19.75
2018-02-24T02:41:45.895Z,18.65
2018-02-24T02:44:13.376Z,20.02
2018-02-24T02:46:40.849Z,18.33
2018-02-24T02:49:09.088Z,20.75
2018-02-24T02:51:36.562Z,20.55
2018-02-24T02:54:04.046Z,18.95
2018-02-24T02:56:32.301Z,19.10
2018-02-24T02:58:59.784Z,19.20
2018-02-24T03:01:27.265Z,21.50
2018-02-24T03:03:54.750Z,19.12
2018-02-24T03:06:22.227Z,18.75
2018-02-24T03:08:49.698Z,21.55
2018-02-24T03:11:18.323Z,19.80
2018-02-24T03:13:45.792Z,19.65
2018-02-24T03:16:13.286Z,18.50
2018-02-24T03:18:40.763Z,20.70
2018-02-24T03:21:09.020Z,19.12
2018-02-24T03:23:36.477Z,18.30
2018-02-24T03:26:03.975Z,19.05
2018-02-24T03:28:31.446Z,16.27
2018-02-24T03:30:58.915Z,19.27
2018-02-24T03:33:26.388Z,18.27
2018-02-24T03:35:53.870Z,18.62
2018-02-24T03:38:21.360Z,17.35
2018-02-24T03:40:49.585Z,17.73
2018-02-24T03:43:17.169Z,19.15
2018-02-24T03:45:49.167Z,19.12
2018-02-24T03:48:16.644Z,20.17
2018-02-24T03:50:44.134Z,17.90
2018-02-24T03:53:11.609Z,18.50
2018-02-24T03:55:39.087Z,18.83
2018-02-24T03:58:07.335Z,17.40
2018-02-24T04:00:34.814Z,18.87
2018-02-24T04:03:03.048Z,18.50
2018-02-24T04:05:30.531Z,21.17
2018-02-24T04:07:58.003Z,18.70
2018-02-24T04:10:26.253Z,19.35
2018-02-24T04:12:53.718Z,21.55
2018-02-24T04:15:21.199Z,21.23
2018-02-24T04:17:49.437Z,18.98
2018-02-24T04:20:16.923Z,20.17
2018-02-24T04:22:44.461Z,20.33
2018-02-24T04:25:13.450Z,19.10
2018-02-24T04:27:40.935Z,22.23
2018-02-24T04:30:08.431Z,22.75
2018-02-24T04:32:35.901Z,21.20
2018-02-24T04:35:03.386Z,20.45
2018-02-24T04:37:30.951Z,20.55
2018-02-24T04:39:58.447Z,17.37
2018-02-24T04:42:25.910Z,19.33
2018-02-24T04:44:53.385Z,18.10
2018-02-24T04:47:20.887Z,19.27
2018-02-24T04:49:48.377Z,20.37
2018-02-24T04:52:16.603Z,20.83
2018-02-24T04:54:44.080Z,19.25
2018-02-24T04:57:11.639Z,17.80
2018-02-24T04:59:39.114Z,18.42
2018-02-24T05:02:07.346Z,18.80
2018-02-24T05:04:34.828Z,19.70
2018-02-24T05:07:02.295Z,19.15
2018-02-24T05:09:29.775Z,19.52
2018-02-24T05:11:57.246Z,19.45
2018-02-24T05:14:24.731Z,19.65
2018-02-24T05:16:52.188Z,18.77
2018-02-24T05:19:19.650Z,20.35
2018-02-24T05:21:47.114Z,20.00
2018-02-24T05:24:14.599Z,20.88
2018-02-24T05:26:42.087Z,18.67
2018-02-24T05:29:09.558Z,21.40
2018-02-24T05:31:37.043Z,19.80
2018-02-24T05:34:04.516Z,20.55
2018-02-24T05:36:31.994Z,20.30
2018-02-24T05:39:00.235Z,18.85
2018-02-24T05:41:27.710Z,18.98
2018-02-24T05:43:55.182Z,21.27
2018-02-24T05:46:22.662Z,19.45
2018-02-24T05:48:50.147Z,20.05
2018-02-24T05:51:17.618Z,20.17
2018-02-24T05:53:45.086Z,19.17
2018-02-24T05:56:12.564Z,24.30
2018-02-24T05:58:40.044Z,19.60
2018-02-24T06:01:08.289Z,20.92
2018-02-24T06:03:35.759Z,20.17
2018-02-24T06:06:03.230Z,18.80
2018-02-24T06:08:31.471Z,20.70
2018-02-24T06:10:58.954Z,20.25
2018-02-24T06:13:26.418Z,18.05
2018-02-24T06:15:54.663Z,18.90
2018-02-24T06:18:22.134Z,19.05
2018-02-24T06:20:49.612Z,18.35
2018-02-24T06:23:17.862Z,21.27
2018-02-24T06:25:45.333Z,18.67
2018-02-24T06:28:13.593Z,18.67
2018-02-24T06:30:41.062Z,21.02
2018-02-24T06:33:08.549Z,19.37
2018-02-24T06:35:36.803Z,21.62
2018-02-24T06:38:04.271Z,20.20
2018-02-24T06:40:32.527Z,21.58
2018-02-24T06:42:59.999Z,20.80
2018-02-24T06:45:28.250Z,20.67
2018-02-24T06:47:55.730Z,20.60
2018-02-24T06:50:23.211Z,19.85
2018-02-24T06:52:50.686Z,19.05
2018-02-24T06:55:18.183Z,17.50
2018-02-24T06:57:45.644Z,17.27
2018-02-24T07:00:13.122Z,16.87
2018-02-24T07:02:41.359Z,18.80
2018-02-24T07:05:08.843Z,16.40
2018-02-24T07:07:36.309Z,17.45
2018-02-24T07:10:03.791Z,18.45
2018-02-24T07:12:31.261Z,19.98
2018-02-24T07:14:58.758Z,20.05
2018-02-24T07:17:26.221Z,19.48
2018-02-24T07:19:53.694Z,17.90
2018-02-24T07:22:21.195Z,19.67
2018-02-24T07:24:48.671Z,18.10
2018-02-24T07:27:16.158Z,18.62
2018-02-24T07:29:43.624Z,18.98
2018-02-24T07:32:11.119Z,16.90
2018-02-24T07:34:39.350Z,16.70
2018-02-24T07:37:07.851Z,17.35
2018-02-24T07:39:36.103Z,15.90
2018-02-24T07:42:03.594Z,15.65
2018-02-24T07:44:31.833Z,20.98
2018-02-24T07:46:59.315Z,35.15
2018-02-24T07:49:26.794Z,17.83
2018-02-24T07:51:55.059Z,16.60
2018-02-24T07:54:23.303Z,18.67
2018-02-24T07:56:50.787Z,16.95
2018-02-24T07:59:19.175Z,16.33
2018-02-24T08:01:47.434Z,15.82
2018-02-24T08:04:14.912Z,18.25
2018-02-24T08:06:43.153Z,17.30
2018-02-24T08:09:10.650Z,16.45
2018-02-24T08:11:38.895Z,15.52
2018-02-24T08:14:06.380Z,15.55
2018-02-24T08:16:34.626Z,16.08
2018-02-24T08:19:02.108Z,15.80
2018-02-24T08:21:30.359Z,15.13
2018-02-24T08:23:57.839Z,16.55
2018-02-24T08:26:25.313Z,16.58
2018-02-24T08:28:53.567Z,15.35
2018-02-24T08:31:21.055Z,17.48
2018-02-24T08:33:48.543Z,17.40
2018-02-24T08:36:16.022Z,17.35
2018-02-24T08:38:43.499Z,20.23
2018-02-24T08:41:10.994Z,17.90
2018-02-24T08:43:38.457Z,16.55
2018-02-24T08:46:05.949Z,17.08
2018-02-24T08:48:34.187Z,17.45
2018-02-24T08:51:01.666Z,16.50
2018-02-24T08:53:29.166Z,15.75
2018-02-24T08:55:56.650Z,18.10
2018-02-24T08:58:24.134Z,19.10
2018-02-24T09:00:59.779Z,19.05
2018-02-24T09:03:27.262Z,18.62
2018-02-24T09:05:55.978Z,18.42
2018-02-24T09:08:24.232Z,19.00
2018-02-24T09:10:51.720Z,17.25
2018-02-24T09:13:19.954Z,18.25
2018-02-24T09:15:47.442Z,16.33
2018-02-24T09:18:14.920Z,20.62
2018-02-24T09:20:43.166Z,17.83
2018-02-24T09:23:10.644Z,19.00
2018-02-24T09:25:38.130Z,15.93
2018-02-24T09:28:05.603Z,16.17
2018-02-24T09:30:33.085Z,16.52
2018-02-24T09:33:00.588Z,15.40
2018-02-24T09:35:28.834Z,17.08
2018-02-24T09:37:56.319Z,15.63
2018-02-24T09:40:23.782Z,15.07
2018-02-24T09:42:52.031Z,15.10
2018-02-24T09:45:19.511Z,11.93
2018-02-24T09:47:47.760Z,14.13
2018-02-24T09:50:15.264Z,13.38
2018-02-24T09:52:42.755Z,12.77
2018-02-24T09:55:10.235Z,12.60
2018-02-24T09:57:37.718Z,13.40
2018-02-24T10:00:05.967Z,12.90
2018-02-24T10:02:33.449Z,14.20
2018-02-24T10:05:01.690Z,12.30
2018-02-24T10:07:30.098Z,14.43
2018-02-24T10:09:57.575Z,13.62
2018-02-24T10:12:25.826Z,12.37
2018-02-24T10:14:53.310Z,14.23
2018-02-24T10:17:21.548Z,9.98
2018-02-24T10:19:49.024Z,10.30
2018-02-24T10:22:16.488Z,9.77
2018-02-24T10:24:43.960Z,10.13
2018-02-24T10:27:11.427Z,8.70
2018-02-24T10:29:38.908Z,7.30
2018-02-24T10:32:06.399Z,7.80
2018-02-24T10:34:33.850Z,8.33
2018-02-24T10:37:01.341Z,8.90
2018-02-24T10:39:28.803Z,8.03
2018-02-24T10:41:57.049Z,7.37
2018-02-24T10:44:24.532Z,7.80
2018-02-24T10:46:52.011Z,8.00
2018-02-24T10:49:20.234Z,7.47
2018-02-24T10:51:47.717Z,6.30
2018-02-24T10:54:15.179Z,6.87
2018-02-24T10:56:42.647Z,6.57
2018-02-24T10:59:10.879Z,6.03
2018-02-24T11:04:32.634Z,5.13
2018-02-24T11:07:00.103Z,4.77
2018-02-24T11:09:27.606Z,4.90
2018-02-24T11:11:55.086Z,4.40
2018-02-24T11:14:22.533Z,4.20
2018-02-24T11:16:50.006Z,3.30
2018-02-24T11:19:17.463Z,2.90
2018-02-24T11:21:44.946Z,3.40
2018-02-24T11:24:12.398Z,3.47
2018-02-24T11:26:39.873Z,2.93
2018-02-24T11:29:07.362Z,2.60
2018-02-24T11:31:35.216Z,2.67
2018-02-24T11:34:02.696Z,2.70
2018-02-24T11:36:30.174Z,3.53
2018-02-24T11:38:59.399Z,2.50
2018-02-24T11:41:26.853Z,2.50
2018-02-24T11:43:54.352Z,2.07
2018-02-24T11:46:21.823Z,2.27
2018-02-24T11:48:49.330Z,3.13
2018-02-24T11:51:16.786Z,2.07
2018-02-24T11:53:44.258Z,2.10
2018-02-24T11:56:11.719Z,2.20
2018-02-24T11:58:39.187Z,2.13
2018-02-24T12:01:06.668Z,2.37
2018-02-24T12:03:34.905Z,2.17
2018-02-24T12:06:02.367Z,2.53
2018-02-24T12:08:29.832Z,2.10
2018-02-24T12:10:57.282Z,2.37
2018-02-24T12:13:24.764Z,1.80
2018-02-24T12:15:52.982Z,2.40
2018-02-24T12:18:20.448Z,3.13
2018-02-24T12:20:47.904Z,2.27
2018-02-24T12:23:15.367Z,2.00
2018-02-24T12:25:42.847Z,2.40
2018-02-24T12:28:10.335Z,2.47
2018-02-24T12:30:38.554Z,2.10
2018-02-24T12:33:06.026Z,2.03
2018-02-24T12:35:33.522Z,2.43
2018-02-24T12:38:00.989Z,3.63
2018-02-24T12:40:29.207Z,2.30
2018-02-24T12:42:56.678Z,2.30
2018-02-24T12:45:24.152Z,2.17
2018-02-24T12:47:51.616Z,1.90
2018-02-24T12:50:19.091Z,2.47
2018-02-24T12:52:47.344Z,2.23
2018-02-24T12:55:14.803Z,2.57
2018-02-24T12:57:42.308Z,2.00
2018-02-24T13:00:09.776Z,2.23
2018-02-24T13:02:37.248Z,2.40
2018-02-24T13:05:04.717Z,2.10
2018-02-24T13:07:32.183Z,2.60
2018-02-24T13:09:59.661Z,2.27
2018-02-24T13:12:27.134Z,2.40
2018-02-24T13:14:55.345Z,2.23
2018-02-24T13:17:22.826Z,2.00
2018-02-24T13:19:50.315Z,2.77
2018-02-24T13:22:17.788Z,2.00
2018-02-24T13:24:46.038Z,1.97
2018-02-24T13:27:13.490Z,4.10
2018-02-24T13:29:40.980Z,1.80
2018-02-24T13:32:09.207Z,2.20
2018-02-24T13:34:36.673Z,2.00
2018-02-24T13:37:04.130Z,1.93
2018-02-24T13:39:31.606Z,2.80
2018-02-24T13:41:59.396Z,2.27
2018-02-24T13:44:27.626Z,1.80
2018-02-24T13:46:55.093Z,1.93
2018-02-24T13:49:22.564Z,1.70
2018-02-24T13:51:50.020Z,1.90
2018-02-24T13:54:17.483Z,1.57
2018-02-24T13:56:44.946Z,2.93
2018-02-24T13:59:13.190Z,2.40
2018-02-24T14:01:40.664Z,1.90
2018-02-24T14:04:08.136Z,1.80
2018-02-24T14:06:35.596Z,2.13
2018-02-24T14:09:03.062Z,2.20
2018-02-24T14:11:31.294Z,4.50
2018-02-24T14:13:58.774Z,2.37
2018-02-24T14:16:26.252Z,5.87
2018-02-24T14:18:54.490Z,2.83
2018-02-24T14:21:21.951Z,2.37
2018-02-24T14:23:49.438Z,2.30
2018-02-24T14:26:16.899Z,7.27
2018-02-24T14:28:45.125Z,2.73
2018-02-24T14:31:12.573Z,2.30
2018-02-24T14:33:40.043Z,9.80
2018-02-24T14:36:07.526Z,2.80
2018-02-24T14:38:34.996Z,2.60
2018-02-24T14:41:02.460Z,7.60
2018-02-24T14:43:29.955Z,7.60
2018-02-24T14:45:57.404Z,5.27
2018-02-24T14:48:24.881Z,1.70
2018-02-24T14:50:52.350Z,2.20
2018-02-24T14:53:19.815Z,2.10
2018-02-24T14:55:47.271Z,2.10
2018-02-24T14:58:14.746Z,1.90
2018-02-24T15:00:42.211Z,2.43
2018-02-24T15:03:09.677Z,2.03
2018-02-24T15:05:37.159Z,2.43
2018-02-24T15:08:05.395Z,2.30
2018-02-24T15:10:32.858Z,7.10
2018-02-24T15:13:00.342Z,2.20
2018-02-24T15:15:28.558Z,3.87
2018-02-24T15:17:56.013Z,2.13
2018-02-24T15:20:23.506Z,5.17
2018-02-24T15:22:50.964Z,17.00
2018-02-24T15:25:18.442Z,11.67
2018-02-24T15:27:45.902Z,4.20
2018-02-24T15:30:14.136Z,2.97
2018-02-24T15:32:41.614Z,17.37
2018-02-24T15:35:09.091Z,3.33
2018-02-24T15:37:37.315Z,3.33
2018-02-24T15:40:04.791Z,2.27
2018-02-24T15:42:32.272Z,8.27
2018-02-24T15:44:59.743Z,2.47
2018-02-24T15:47:27.969Z,2.80
2018-02-24T15:49:55.448Z,2.70
2018-02-24T15:52:22.917Z,2.37
2018-02-24T15:54:51.193Z,2.60
2018-02-24T15:57:18.672Z,2.43
2018-02-24T15:59:46.909Z,2.42
2018-02-24T16:02:15.147Z,2.72
2018-02-24T16:04:42.626Z,4.43
2018-02-24T16:07:10.091Z,2.50
2018-02-24T16:09:37.559Z,4.30
2018-02-24T16:12:05.035Z,3.30
2018-02-24T16:14:32.520Z,2.87
2018-02-24T16:17:00.750Z,2.57
2018-02-24T16:19:28.220Z,2.90
2018-02-24T16:24:48.974Z,2.47
2018-02-24T16:27:17.196Z,3.22
2018-02-24T16:29:44.674Z,3.13
2018-02-24T16:32:12.148Z,2.40
2018-02-24T16:34:39.626Z,2.80
2018-02-24T16:37:07.864Z,3.05
2018-02-24T16:39:36.095Z,2.40
2018-02-24T16:42:03.568Z,2.80
2018-02-24T16:44:31.031Z,2.97
2018-02-24T16:46:58.494Z,3.00
2018-02-24T16:49:25.967Z,2.90
2018-02-24T16:51:53.435Z,2.60
2018-02-24T16:54:20.912Z,2.50
2018-02-24T16:56:48.379Z,2.97
2018-02-24T16:59:16.621Z,2.60
2018-02-24T17:01:44.077Z,3.17
2018-02-24T17:04:11.567Z,3.03
2018-02-24T17:06:39.786Z,3.33
2018-02-24T17:09:07.269Z,3.50
2018-02-24T17:11:34.740Z,3.45
2018-02-24T17:14:02.237Z,3.40
2018-02-24T17:16:29.699Z,3.80
2018-02-24T17:18:57.184Z,3.65
2018-02-24T17:21:24.662Z,3.87
2018-02-24T17:23:53.167Z,3.60
2018-02-24T17:26:21.419Z,3.42
2018-02-24T17:28:48.905Z,3.62
2018-02-24T17:31:16.380Z,3.70
2018-02-24T17:33:43.862Z,4.00
2018-02-24T17:36:11.353Z,4.20
2018-02-24T17:38:38.840Z,2.77
2018-02-24T17:41:07.074Z,4.10
2018-02-24T17:43:34.548Z,4.20
2018-02-24T17:46:02.035Z,3.60
2018-02-24T17:48:30.262Z,4.18
2018-02-24T17:50:57.746Z,3.53
2018-02-24T17:53:25.218Z,4.40
2018-02-24T17:55:52.701Z,4.37
2018-02-24T17:58:20.210Z,3.60
2018-02-24T18:00:47.687Z,4.07
2018-02-24T18:03:15.154Z,3.85
2018-02-24T18:05:43.420Z,3.70
2018-02-24T18:08:10.896Z,4.00
2018-02-24T18:10:39.139Z,6.22
2018-02-24T18:13:06.639Z,4.18
2018-02-24T18:15:34.159Z,4.28
2018-02-24T18:18:01.632Z,4.95
2018-02-24T18:20:29.127Z,5.53
2018-02-24T18:22:56.658Z,3.87
2018-02-24T18:25:24.910Z,4.80
2018-02-24T18:27:52.407Z,3.55
2018-02-24T18:30:20.650Z,5.03
2018-02-24T18:32:48.127Z,4.55
2018-02-24T18:35:16.381Z,4.50
2018-02-24T18:37:43.900Z,4.15
2018-02-24T18:40:11.386Z,3.78
2018-02-24T18:42:38.858Z,3.60
2018-02-24T18:45:06.335Z,3.62
2018-02-24T18:47:34.570Z,3.50
2018-02-24T18:50:02.047Z,4.05
2018-02-24T18:52:29.527Z,3.85
2018-02-24T18:54:57.774Z,4.18
2018-02-24T18:57:25.242Z,4.35
2018-02-24T18:59:52.714Z,3.90
2018-02-24T19:02:20.965Z,3.60
2018-02-24T19:04:48.450Z,3.80
2018-02-24T19:07:16.703Z,4.25
2018-02-24T19:09:44.172Z,3.70
2018-02-24T19:12:11.643Z,5.00
2018-02-24T19:14:39.911Z,5.28
2018-02-24T19:17:07.380Z,5.75
2018-02-24T19:19:35.668Z,4.87
2018-02-24T19:22:03.906Z,4.93
2018-02-24T19:24:31.389Z,4.87
2018-02-24T19:26:59.635Z,7.07
2018-02-24T19:29:27.120Z,6.85
2018-02-24T19:31:54.590Z,6.50
2018-02-24T19:34:22.826Z,5.60
2018-02-24T19:36:50.303Z,4.95
2018-02-24T19:39:17.770Z,5.05
2018-02-24T19:41:46.011Z,5.50
2018-02-24T19:44:13.480Z,6.57
2018-02-24T19:46:40.971Z,6.32
2018-02-24T19:49:09.195Z,6.28
2018-02-24T19:51:36.671Z,4.72
2018-02-24T19:54:04.148Z,6.10
2018-02-24T19:56:31.636Z,5.30
2018-02-24T19:58:59.107Z,4.87
2018-02-24T20:01:26.578Z,4.65
2018-02-24T20:03:54.078Z,5.28
2018-02-24T20:06:21.554Z,5.40
2018-02-24T20:08:49.806Z,5.75
2018-02-24T20:11:17.295Z,5.03
2018-02-24T20:13:45.548Z,8.82
2018-02-24T20:16:13.026Z,8.52
2018-02-24T20:18:41.263Z,7.87
2018-02-24T20:21:08.749Z,4.65
2018-02-24T20:23:36.987Z,6.62
2018-02-24T20:26:05.231Z,4.65
2018-02-24T20:28:32.731Z,4.35
2018-02-24T20:31:00.199Z,4.65
2018-02-24T20:33:27.666Z,5.30
2018-02-24T20:35:55.146Z,4.20
2018-02-24T20:38:23.375Z,4.10
2018-02-24T20:40:50.850Z,4.93
2018-02-24T20:43:18.315Z,5.80
2018-02-24T20:45:45.785Z,5.45
2018-02-24T20:48:14.062Z,5.00
2018-02-24T20:50:42.319Z,6.55
2018-02-24T20:53:09.782Z,5.10
2018-02-24T20:55:37.263Z,5.45
2018-02-24T20:58:05.498Z,5.45
2018-02-24T21:00:32.975Z,4.82
2018-02-24T21:03:00.447Z,5.25
2018-02-24T21:05:28.691Z,4.60
2018-02-24T21:07:56.151Z,6.03
2018-02-24T21:10:23.622Z,4.93
2018-02-24T21:12:51.102Z,5.53
2018-02-24T21:15:18.556Z,5.50
2018-02-24T21:17:46.792Z,5.53
2018-02-24T21:20:15.027Z,5.80
2018-02-24T21:22:42.486Z,5.72
2018-02-24T21:25:09.967Z,5.00
2018-02-24T21:27:37.444Z,4.68
2018-02-24T21:30:04.928Z,4.90
2018-02-24T21:32:32.393Z,5.05
2018-02-24T21:34:59.864Z,6.05
2018-02-24T21:37:28.106Z,6.32
2018-02-24T21:42:29.507Z,9.65
2018-02-24T21:44:57.750Z,6.25
2018-02-24T21:47:25.223Z,5.25
2018-02-24T21:49:52.691Z,7.45
2018-02-24T21:52:20.943Z,8.80
2018-02-24T21:54:48.418Z,20.73
2018-02-24T21:57:15.885Z,15.75
2018-02-24T21:59:44.117Z,10.18
2018-02-24T22:02:11.614Z,6.28
2018-02-24T22:04:39.847Z,6.65
2018-02-24T22:07:07.332Z,8.23
2018-02-24T22:09:34.784Z,7.00
2018-02-24T22:12:02.259Z,6.00
2018-02-24T22:14:29.714Z,6.03
2018-02-24T22:16:57.950Z,6.45
2018-02-24T22:19:25.419Z,6.70
2018-02-24T22:21:52.887Z,10.30
2018-02-24T22:24:20.360Z,7.03
2018-02-24T22:26:47.829Z,7.32
2018-02-24T22:29:16.068Z,5.72
2018-02-24T22:31:43.550Z,8.90
2018-02-24T22:34:11.018Z,16.20
2018-02-24T22:36:39.258Z,9.85
2018-02-24T22:39:06.764Z,13.45
2018-02-24T22:41:35.030Z,10.02
2018-02-24T22:44:02.486Z,14.77
2018-02-24T22:46:30.730Z,6.37
2018-02-24T22:49:01.046Z,15.68
2018-02-24T22:51:28.558Z,7.80
2018-02-24T22:53:56.774Z,6.45
2018-02-24T22:56:24.259Z,6.03
2018-02-24T22:58:51.710Z,5.70
2018-02-24T23:01:19.181Z,6.37
2018-02-24T23:03:46.662Z,6.95
2018-02-24T23:06:14.933Z,6.78
2018-02-24T23:08:43.170Z,5.60
2018-02-24T23:11:10.658Z,6.12
2018-02-24T23:13:38.111Z,5.75
2018-02-24T23:16:05.581Z,6.80
2018-02-24T23:18:33.814Z,5.20
2018-02-24T23:21:01.282Z,5.15
2018-02-24T23:23:28.747Z,5.75
2018-02-24T23:25:56.235Z,6.07
2018-02-24T23:28:24.465Z,5.78
2018-02-24T23:30:51.976Z,5.95
2018-02-24T23:33:19.475Z,6.10
2018-02-24T23:35:46.930Z,7.00
2018-02-24T23:38:14.420Z,5.95
2018-02-24T23:40:41.906Z,6.78
2018-02-24T23:43:10.159Z,5.65
2018-02-24T23:45:37.636Z,6.90
2018-02-24T23:48:05.894Z,5.90
2018-02-24T23:50:33.356Z,5.90
2018-02-24T23:53:00.830Z,6.03
2018-02-24T23:55:29.063Z,5.95
2018-02-24T23:57:56.903Z,6.70
